Time;durP1;ratioP1;P1;durP2;ratioP2;P2;SDS_P1;SDS_P2;PMS_P1;PMS_P2;Temp;Humidity;BMP_temperature;BMP_pressure;BME280_temperature;BME280_humidity;BME280_pressure;Samples;Min_cycle;Max_cycle;Signal;HPM_P1;HPM_P2
2024/01/20 00:01:05;;;;;;;29.40;11.52;;;;;;;;;;5047154;28;20091;-65
2024/01/20 00:03:30;;;;;;;15.85;8.20;;;;;;;;;;5051098;28;20028;-66
2024/01/20 00:05:56;;;;;;;31.33;12.20;;;;;;;;;;5048551;28;20421;-64
2024/01/20 00:08:21;;;;;;;32.40;12.13;;;;;;;;;;5050139;28;20036;-66
2024/01/20 00:10:46;;;;;;;24.75;11.55;;;;;;;;;;5040001;28;20112;-62
2024/01/20 00:13:12;;;;;;;29.00;12.32;;;;;;;;;;5038235;28;20036;-67
2024/01/20 00:15:39;;;;;;;28.05;12.40;;;;;;;;;;5049192;28;20048;-67
2024/01/20 00:18:04;;;;;;;21.95;9.45;;;;;;;;;;5049539;28;20031;-67
2024/01/20 00:20:30;;;;;;;26.23;11.00;;;;;;;;;;5052126;28;20041;-66
2024/01/20 00:22:55;;;;;;;22.75;10.68;;;;;;;;;;5044779;28;20045;-64
2024/01/20 00:25:21;;;;;;;22.92;10.05;;;;;;;;;;5049808;28;20454;-67
2024/01/20 00:27:49;;;;;;;29.02;12.18;;;;;;;;;;5047763;28;20069;-67
2024/01/20 00:30:15;;;;;;;23.92;10.25;;;;;;;;;;5049970;28;20116;-65
2024/01/20 00:32:41;;;;;;;27.20;10.80;;;;;;;;;;5049749;28;20037;-66
2024/01/20 00:35:06;;;;;;;22.50;10.20;;;;;;;;;;5031535;28;20067;-67
2024/01/20 00:37:33;;;;;;;28.08;10.18;;;;;;;;;;5031065;28;20481;-66
2024/01/20 00:39:58;;;;;;;26.67;10.43;;;;;;;;;;5045365;28;20381;-63
2024/01/20 00:42:23;;;;;;;31.50;11.32;;;;;;;;;;5042459;28;20033;-67
2024/01/20 00:44:49;;;;;;;33.03;12.77;;;;;;;;;;5046998;28;20440;-66
2024/01/20 00:47:14;;;;;;;27.60;10.55;;;;;;;;;;5037868;28;20108;-66
2024/01/20 00:49:40;;;;;;;14.95;6.63;;;;;;;;;;5050649;28;20048;-67
2024/01/20 00:52:06;;;;;;;21.50;8.70;;;;;;;;;;5047908;28;20032;-67
2024/01/20 00:54:31;;;;;;;14.88;7.47;;;;;;;;;;5047017;28;20044;-66
2024/01/20 00:56:56;;;;;;;25.80;9.95;;;;;;;;;;5044647;28;20036;-66
2024/01/20 00:59:22;;;;;;;21.52;9.20;;;;;;;;;;5041696;28;20082;-66
2024/01/20 01:01:47;;;;;;;21.63;7.03;;;;;;;;;;5049848;28;20126;-67
2024/01/20 01:04:12;;;;;;;24.83;9.20;;;;;;;;;;5047920;28;20036;-67
2024/01/20 01:06:38;;;;;;;17.35;8.20;;;;;;;;;;5048574;28;20053;-66
2024/01/20 01:09:03;;;;;;;24.40;9.63;;;;;;;;;;5048338;28;20401;-67
2024/01/20 01:11:28;;;;;;;18.98;8.07;;;;;;;;;;5052721;28;20171;-67
2024/01/20 01:13:54;;;;;;;30.83;11.88;;;;;;;;;;5055300;28;20033;-66
2024/01/20 01:16:19;;;;;;;23.05;9.98;;;;;;;;;;5054556;28;20588;-66
2024/01/20 01:18:45;;;;;;;22.60;10.75;;;;;;;;;;5054736;28;20439;-64
2024/01/20 01:21:10;;;;;;;18.50;8.57;;;;;;;;;;5052321;28;20441;-65
2024/01/20 01:23:35;;;;;;;26.48;11.10;;;;;;;;;;5054989;28;20038;-66
2024/01/20 01:26:01;;;;;;;14.07;7.07;;;;;;;;;;5033899;28;20041;-62
2024/01/20 01:28:26;;;;;;;15.20;7.30;;;;;;;;;;5034805;28;20029;-67
2024/01/20 01:30:52;;;;;;;16.08;7.68;;;;;;;;;;5051097;28;20025;-67
2024/01/20 01:33:17;;;;;;;19.77;9.48;;;;;;;;;;5053425;28;20036;-67
2024/01/20 01:35:42;;;;;;;24.13;9.38;;;;;;;;;;5047030;28;20491;-67
2024/01/20 01:38:09;;;;;;;26.90;9.13;;;;;;;;;;5034684;28;20026;-66
2024/01/20 01:40:34;;;;;;;23.38;8.82;;;;;;;;;;5034917;28;20029;-67
2024/01/20 01:42:59;;;;;;;22.38;9.15;;;;;;;;;;5034626;28;20091;-66
2024/01/20 01:45:25;;;;;;;28.83;12.82;;;;;;;;;;5040114;28;20060;-67
2024/01/20 01:47:53;;;;;;;22.13;9.88;;;;;;;;;;5055029;28;20032;-66
2024/01/20 01:50:19;;;;;;;32.17;10.73;;;;;;;;;;5053914;28;20086;-67
2024/01/20 01:52:47;;;;;;;28.08;10.25;;;;;;;;;;5054561;28;20029;-67
2024/01/20 01:55:13;;;;;;;25.10;10.30;;;;;;;;;;5051469;28;20028;-67
2024/01/20 01:57:41;;;;;;;23.17;9.15;;;;;;;;;;5033427;28;20029;-68
2024/01/20 02:00:06;;;;;;;28.15;11.95;;;;;;;;;;5048398;28;20033;-67
2024/01/20 02:02:32;;;;;;;24.73;10.02;;;;;;;;;;5051911;28;20040;-67
2024/01/20 02:04:57;;;;;;;20.77;7.78;;;;;;;;;;5049231;28;20033;-66
2024/01/20 02:07:23;;;;;;;19.58;9.00;;;;;;;;;;5053290;28;20594;-67
2024/01/20 02:09:48;;;;;;;24.70;9.52;;;;;;;;;;5051069;28;20043;-67
2024/01/20 02:12:14;;;;;;;14.02;6.65;;;;;;;;;;5052348;28;20044;-67
2024/01/20 02:14:42;;;;;;;24.73;9.98;;;;;;;;;;5034393;28;20026;-66
2024/01/20 02:17:08;;;;;;;20.13;10.18;;;;;;;;;;5052084;28;20044;-65
2024/01/20 02:19:37;;;;;;;25.95;11.30;;;;;;;;;;5051164;28;20029;-67
2024/01/20 02:22:16;;;;;;;17.42;8.98;;;;;;;;;;5047813;28;20056;-63
2024/01/20 02:24:47;;;;;;;25.25;10.35;;;;;;;;;;5051100;28;20033;-66
2024/01/20 02:27:14;;;;;;;29.83;11.57;;;;;;;;;;5051782;28;20054;-67
2024/01/20 02:29:39;;;;;;;18.90;10.18;;;;;;;;;;5051583;28;20056;-67
2024/01/20 02:32:05;;;;;;;22.92;9.27;;;;;;;;;;5050424;28;20496;-65
2024/01/20 02:34:31;;;;;;;14.65;8.20;;;;;;;;;;5053901;28;20040;-66
2024/01/20 02:36:56;;;;;;;21.70;10.20;;;;;;;;;;5036793;28;20094;-63
2024/01/20 02:39:22;;;;;;;25.65;11.23;;;;;;;;;;5050297;28;20112;-66
2024/01/20 02:41:47;;;;;;;22.60;9.63;;;;;;;;;;5053716;28;20420;-65
2024/01/20 02:44:13;;;;;;;19.52;8.93;;;;;;;;;;5045656;28;20044;-67
2024/01/20 02:46:38;;;;;;;20.67;8.55;;;;;;;;;;5052235;28;20370;-63
2024/01/20 02:49:04;;;;;;;20.75;9.52;;;;;;;;;;5050311;28;20033;-63
2024/01/20 02:51:29;;;;;;;26.35;11.20;;;;;;;;;;5047406;28;20125;-68
2024/01/20 02:53:55;;;;;;;27.58;11.85;;;;;;;;;;5046459;28;20029;-66
2024/01/20 02:56:22;;;;;;;29.10;11.88;;;;;;;;;;5044090;28;20375;-65
2024/01/20 02:58:48;;;;;;;26.40;11.40;;;;;;;;;;5040371;28;20063;-65
2024/01/20 03:01:14;;;;;;;25.83;11.18;;;;;;;;;;5050461;28;20037;-65
2024/01/20 03:03:39;;;;;;;26.92;11.77;;;;;;;;;;5050615;28;20112;-63
2024/01/20 03:06:05;;;;;;;23.20;10.52;;;;;;;;;;5038267;28;20032;-63
2024/01/20 03:08:30;;;;;;;30.25;12.85;;;;;;;;;;5050843;28;20478;-66
2024/01/20 03:10:56;;;;;;;28.20;9.63;;;;;;;;;;5050247;28;20029;-67
2024/01/20 03:13:21;;;;;;;27.08;12.38;;;;;;;;;;5050894;28;20111;-66
2024/01/20 03:15:46;;;;;;;22.45;11.32;;;;;;;;;;5051983;28;20037;-66
2024/01/20 03:18:12;;;;;;;25.40;11.93;;;;;;;;;;5050890;28;20438;-66
2024/01/20 03:20:37;;;;;;;22.23;11.02;;;;;;;;;;5051779;28;20029;-67
2024/01/20 03:23:03;;;;;;;31.75;11.98;;;;;;;;;;5047414;28;20044;-66
2024/01/20 03:25:28;;;;;;;21.27;10.20;;;;;;;;;;5051933;28;20025;-67
2024/01/20 03:27:53;;;;;;;22.30;10.07;;;;;;;;;;5048037;28;20061;-66
2024/01/20 03:30:20;;;;;;;31.95;13.40;;;;;;;;;;5037856;28;20040;-66
2024/01/20 03:32:46;;;;;;;38.03;15.38;;;;;;;;;;5047708;28;20491;-66
2024/01/20 03:35:11;;;;;;;24.38;10.15;;;;;;;;;;5049028;28;20033;-66
2024/01/20 03:37:37;;;;;;;26.23;10.25;;;;;;;;;;5051303;28;20496;-66
2024/01/20 03:40:02;;;;;;;27.83;12.80;;;;;;;;;;5050944;28;20119;-66
2024/01/20 03:42:28;;;;;;;25.42;10.15;;;;;;;;;;5039904;28;20129;-65
2024/01/20 03:44:54;;;;;;;23.42;10.93;;;;;;;;;;5051382;28;20116;-70
2024/01/20 03:47:19;;;;;;;30.67;11.63;;;;;;;;;;5048147;28;20250;-65
2024/01/20 03:49:45;;;;;;;23.98;10.38;;;;;;;;;;5050685;28;20040;-67
2024/01/20 03:52:10;;;;;;;36.13;17.63;;;;;;;;;;5048195;28;20033;-62
2024/01/20 03:54:36;;;;;;;26.38;11.25;;;;;;;;;;5048732;28;20041;-65
2024/01/20 03:57:01;;;;;;;25.83;10.15;;;;;;;;;;5051369;28;20323;-65
2024/01/20 03:59:27;;;;;;;37.55;15.52;;;;;;;;;;5048739;28;20135;-66
2024/01/20 04:01:52;;;;;;;32.10;12.90;;;;;;;;;;5047306;28;20417;-64
2024/01/20 04:04:17;;;;;;;22.48;9.73;;;;;;;;;;5043135;28;20029;-65
2024/01/20 04:06:43;;;;;;;27.45;12.27;;;;;;;;;;5050295;28;20032;-65
2024/01/20 04:09:08;;;;;;;27.90;12.95;;;;;;;;;;5049791;28;20032;-62
2024/01/20 04:11:34;;;;;;;17.67;9.20;;;;;;;;;;5048879;28;20037;-66
2024/01/20 04:13:59;;;;;;;32.40;13.35;;;;;;;;;;5050031;28;20043;-67
2024/01/20 04:16:25;;;;;;;36.92;14.18;;;;;;;;;;5040273;28;20037;-66
2024/01/20 04:18:50;;;;;;;25.70;11.73;;;;;;;;;;5046769;28;20535;-66
2024/01/20 04:21:15;;;;;;;22.38;9.73;;;;;;;;;;5050923;28;20057;-64
2024/01/20 04:23:41;;;;;;;23.10;10.55;;;;;;;;;;5043928;28;20064;-66
2024/01/20 04:26:06;;;;;;;31.83;12.63;;;;;;;;;;5031634;28;20034;-65
2024/01/20 04:28:31;;;;;;;26.92;11.20;;;;;;;;;;5042601;28;20029;-65
2024/01/20 04:30:57;;;;;;;17.40;8.43;;;;;;;;;;5050162;28;20029;-65
2024/01/20 04:33:22;;;;;;;28.77;12.00;;;;;;;;;;5049702;28;20029;-65
2024/01/20 04:35:47;;;;;;;32.28;12.45;;;;;;;;;;5035589;28;20094;-64
2024/01/20 04:38:13;;;;;;;29.13;11.18;;;;;;;;;;5051216;28;20025;-63
2024/01/20 04:40:38;;;;;;;24.85;9.88;;;;;;;;;;5046359;28;20382;-63
2024/01/20 04:43:04;;;;;;;36.53;12.18;;;;;;;;;;5043790;28;20039;-65
2024/01/20 04:45:29;;;;;;;23.45;11.05;;;;;;;;;;5049709;28;20032;-65
2024/01/20 04:47:56;;;;;;;27.77;11.55;;;;;;;;;;5049373;28;20025;-66
2024/01/20 04:50:21;;;;;;;40.47;15.20;;;;;;;;;;5049656;28;20469;-64
2024/01/20 04:52:46;;;;;;;30.70;12.00;;;;;;;;;;5042038;28;20030;-64
2024/01/20 04:55:12;;;;;;;27.70;11.38;;;;;;;;;;5046208;28;20040;-62
2024/01/20 04:57:37;;;;;;;35.13;12.77;;;;;;;;;;5050184;28;20086;-65
2024/01/20 05:00:03;;;;;;;18.67;9.25;;;;;;;;;;5047101;28;20037;-66
2024/01/20 05:02:28;;;;;;;38.17;13.57;;;;;;;;;;5045795;28;20033;-65
2024/01/20 05:04:54;;;;;;;44.63;15.23;;;;;;;;;;5043250;28;20025;-65
2024/01/20 05:07:19;;;;;;;28.52;11.80;;;;;;;;;;5047467;28;20389;-64
2024/01/20 05:09:45;;;;;;;23.83;11.90;;;;;;;;;;5049961;28;20040;-66
2024/01/20 05:12:10;;;;;;;31.92;14.20;;;;;;;;;;5046602;28;20560;-64
2024/01/20 05:14:35;;;;;;;28.60;10.98;;;;;;;;;;5048029;28;20047;-65
2024/01/20 05:17:03;;;;;;;30.13;12.80;;;;;;;;;;5050193;28;20056;-66
2024/01/20 05:19:29;;;;;;;21.85;10.57;;;;;;;;;;5047564;28;20424;-66
2024/01/20 05:21:54;;;;;;;37.92;13.65;;;;;;;;;;5048310;28;20052;-65
2024/01/20 05:24:19;;;;;;;34.08;12.40;;;;;;;;;;5040423;28;20034;-65
2024/01/20 05:26:45;;;;;;;23.90;10.73;;;;;;;;;;5042248;28;20048;-66
2024/01/20 05:29:10;;;;;;;28.35;11.07;;;;;;;;;;5050155;28;20458;-64
2024/01/20 05:31:35;;;;;;;26.90;10.52;;;;;;;;;;5048330;28;20041;-65
2024/01/20 05:34:01;;;;;;;21.73;10.05;;;;;;;;;;5043826;28;20060;-65
2024/01/20 05:36:27;;;;;;;35.80;11.77;;;;;;;;;;5050007;28;20033;-66
2024/01/20 05:38:52;;;;;;;33.92;13.30;;;;;;;;;;5051139;28;20040;-66
2024/01/20 05:41:17;;;;;;;40.03;14.27;;;;;;;;;;5050508;28;20072;-63
2024/01/20 05:43:43;;;;;;;46.13;15.38;;;;;;;;;;5050687;28;20066;-64
2024/01/20 05:46:08;;;;;;;41.22;15.15;;;;;;;;;;5055516;28;20579;-65
2024/01/20 05:48:34;;;;;;;34.95;11.98;;;;;;;;;;5050324;28;20520;-66
2024/01/20 05:51:00;;;;;;;28.88;13.25;;;;;;;;;;5051286;28;20464;-65
2024/01/20 05:53:25;;;;;;;23.15;9.82;;;;;;;;;;5035567;28;20037;-66
2024/01/20 05:55:51;;;;;;;29.23;10.13;;;;;;;;;;5050718;28;20397;-66
2024/01/20 05:58:16;;;;;;;28.98;13.43;;;;;;;;;;5042196;28;20150;-63
2024/01/20 06:00:41;;;;;;;36.72;12.85;;;;;;;;;;5054381;28;20450;-65
2024/01/20 06:03:07;;;;;;;24.85;11.43;;;;;;;;;;5054455;28;20039;-65
2024/01/20 06:05:32;;;;;;;29.92;12.77;;;;;;;;;;5051667;28;20035;-65
2024/01/20 06:07:58;;;;;;;27.40;10.23;;;;;;;;;;5054362;28;20119;-66
2024/01/20 06:10:24;;;;;;;36.08;13.85;;;;;;;;;;5052989;28;20090;-63
2024/01/20 06:12:49;;;;;;;25.65;10.35;;;;;;;;;;5053856;28;20436;-65
2024/01/20 06:15:15;;;;;;;32.55;12.70;;;;;;;;;;5052999;28;20035;-64
2024/01/20 06:17:40;;;;;;;23.40;9.23;;;;;;;;;;5053665;28;20029;-65
2024/01/20 06:20:06;;;;;;;23.20;9.68;;;;;;;;;;5053282;28;20037;-64
2024/01/20 06:22:32;;;;;;;23.75;11.23;;;;;;;;;;5053448;28;20049;-64
2024/01/20 06:24:57;;;;;;;37.85;15.07;;;;;;;;;;5052491;28;20065;-65
2024/01/20 06:27:23;;;;;;;29.98;13.40;;;;;;;;;;5052736;28;20025;-65
2024/01/20 06:29:48;;;;;;;36.22;14.85;;;;;;;;;;5054153;28;20103;-66
2024/01/20 06:32:14;;;;;;;27.90;11.85;;;;;;;;;;5054488;28;20032;-65
2024/01/20 06:34:39;;;;;;;32.47;11.02;;;;;;;;;;5045979;28;20623;-65
2024/01/20 06:37:05;;;;;;;30.23;12.60;;;;;;;;;;5034251;28;20033;-65
2024/01/20 06:39:31;;;;;;;29.50;11.15;;;;;;;;;;5039909;28;20025;-65
2024/01/20 06:41:56;;;;;;;29.17;12.45;;;;;;;;;;5073957;28;20040;-65
2024/01/20 06:44:22;;;;;;;33.10;13.05;;;;;;;;;;5044365;28;20041;-64
2024/01/20 06:46:48;;;;;;;35.55;13.57;;;;;;;;;;5033546;28;20029;-64
2024/01/20 06:49:16;;;;;;;27.42;11.27;;;;;;;;;;5033899;28;20110;-64
2024/01/20 06:51:44;;;;;;;29.75;12.98;;;;;;;;;;5033178;28;20564;-65
2024/01/20 06:54:10;;;;;;;29.35;12.20;;;;;;;;;;5034051;28;20037;-65
2024/01/20 06:56:35;;;;;;;28.27;11.65;;;;;;;;;;5032960;28;20052;-63
2024/01/20 06:59:01;;;;;;;27.85;10.32;;;;;;;;;;5033822;28;20481;-64
2024/01/20 07:01:26;;;;;;;24.27;10.75;;;;;;;;;;5032244;28;20049;-64
2024/01/20 07:03:52;;;;;;;31.13;11.70;;;;;;;;;;5033862;28;20039;-64
2024/01/20 07:06:22;;;;;;;25.30;11.20;;;;;;;;;;5032609;28;20088;-64
2024/01/20 07:08:47;;;;;;;28.25;12.05;;;;;;;;;;5033451;28;20029;-64
2024/01/20 07:11:13;;;;;;;33.95;14.93;;;;;;;;;;5038486;28;20095;-64
2024/01/20 07:13:38;;;;;;;30.92;11.55;;;;;;;;;;5052712;28;20067;-65
2024/01/20 07:16:14;;;;;;;28.08;11.20;;;;;;;;;;5049917;28;20033;-64
2024/01/20 07:18:40;;;;;;;45.15;16.63;;;;;;;;;;5032967;28;20674;-63
2024/01/20 07:21:06;;;;;;;23.80;9.98;;;;;;;;;;5033053;28;20064;-63
2024/01/20 07:23:32;;;;;;;21.77;8.88;;;;;;;;;;5039504;28;20029;-64
2024/01/20 07:26:00;;;;;;;39.35;12.15;;;;;;;;;;5052924;28;20114;-64
2024/01/20 07:28:26;;;;;;;35.83;13.68;;;;;;;;;;5049553;28;20033;-62
2024/01/20 07:30:52;;;;;;;27.60;11.88;;;;;;;;;;5047345;28;20116;-62
2024/01/20 07:33:17;;;;;;;28.67;13.32;;;;;;;;;;5033054;28;20128;-63
2024/01/20 07:35:43;;;;;;;25.98;10.90;;;;;;;;;;5032931;28;20033;-64
2024/01/20 07:38:08;;;;;;;32.90;12.20;;;;;;;;;;5033351;28;20033;-63
2024/01/20 07:40:34;;;;;;;23.77;9.68;;;;;;;;;;5032128;28;20033;-63
2024/01/20 07:42:59;;;;;;;31.60;10.75;;;;;;;;;;5032878;28;20163;-62
2024/01/20 07:45:27;;;;;;;17.38;8.82;;;;;;;;;;5032052;28;20025;-63
2024/01/20 07:47:52;;;;;;;31.17;12.30;;;;;;;;;;5032573;28;20440;-63
2024/01/20 07:50:17;;;;;;;27.30;10.90;;;;;;;;;;5051068;28;20029;-63
2024/01/20 07:52:43;;;;;;;19.80;9.75;;;;;;;;;;5034992;28;20546;-62
2024/01/20 07:55:08;;;;;;;17.33;9.15;;;;;;;;;;5032472;28;20438;-63
2024/01/20 07:57:34;;;;;;;23.48;9.93;;;;;;;;;;5031676;28;20442;-62
2024/01/20 08:00:00;;;;;;;19.88;8.43;;;;;;;;;;5032504;28;20029;-63
2024/01/20 08:02:25;;;;;;;44.92;16.60;;;;;;;;;;5031848;28;20059;-61
2024/01/20 08:04:50;;;;;;;32.35;10.35;;;;;;;;;;5044568;28;20459;-64
2024/01/20 08:07:16;;;;;;;27.02;12.02;;;;;;;;;;5057190;28;20025;-64
2024/01/20 08:09:41;;;;;;;19.52;9.38;;;;;;;;;;5055250;28;20024;-63
2024/01/20 08:12:07;;;;;;;23.73;11.40;;;;;;;;;;5065949;28;20021;-63
2024/01/20 08:14:32;;;;;;;31.00;10.18;;;;;;;;;;5060189;28;20033;-62
2024/01/20 08:16:57;;;;;;;37.80;15.98;;;;;;;;;;5057618;28;20107;-62
2024/01/20 08:19:23;;;;;;;25.30;9.68;;;;;;;;;;5062095;28;20033;-62
2024/01/20 08:21:48;;;;;;;17.80;7.40;;;;;;;;;;5064146;28;20477;-62
2024/01/20 08:24:14;;;;;;;32.90;13.48;;;;;;;;;;5057523;28;20028;-62
2024/01/20 08:26:41;;;;;;;19.67;8.18;;;;;;;;;;5050601;28;20028;-62
2024/01/20 08:29:07;;;;;;;21.58;9.38;;;;;;;;;;5061824;28;20077;-63
2024/01/20 08:31:32;;;;;;;28.52;12.90;;;;;;;;;;5056459;28;20132;-62
2024/01/20 08:33:57;;;;;;;21.60;8.38;;;;;;;;;;5060138;28;20174;-62
2024/01/20 08:36:23;;;;;;;27.45;10.57;;;;;;;;;;5056556;28;20071;-62
2024/01/20 08:38:49;;;;;;;15.25;7.53;;;;;;;;;;5064790;28;20044;-62
2024/01/20 08:41:16;;;;;;;13.65;6.80;;;;;;;;;;5071607;28;20383;-62
2024/01/20 08:43:43;;;;;;;20.95;8.85;;;;;;;;;;5036906;28;20454;-62
2024/01/20 08:46:08;;;;;;;16.30;7.53;;;;;;;;;;5050075;28;20033;-63
2024/01/20 08:48:34;;;;;;;14.55;6.82;;;;;;;;;;5050821;28;20112;-63
2024/01/20 08:51:00;;;;;;;16.58;7.43;;;;;;;;;;5041517;28;20397;-62
2024/01/20 08:53:28;;;;;;;17.30;7.45;;;;;;;;;;5044662;28;20065;-63
2024/01/20 08:55:54;;;;;;;18.85;6.93;;;;;;;;;;5049309;28;20032;-62
2024/01/20 08:58:19;;;;;;;20.50;8.60;;;;;;;;;;5035665;28;20083;-63
2024/01/20 09:00:45;;;;;;;22.02;8.40;;;;;;;;;;5029604;28;20156;-62
2024/01/20 09:03:10;;;;;;;19.90;7.50;;;;;;;;;;5032037;28;20459;-63
2024/01/20 09:05:36;;;;;;;13.52;5.68;;;;;;;;;;5030711;28;20034;-62
2024/01/20 09:08:01;;;;;;;12.57;6.18;;;;;;;;;;5050323;28;20033;-62
2024/01/20 09:10:26;;;;;;;9.50;4.88;;;;;;;;;;5058118;28;20089;-63
2024/01/20 09:12:52;;;;;;;17.23;7.10;;;;;;;;;;5063495;28;20104;-67
2024/01/20 09:15:17;;;;;;;13.73;5.82;;;;;;;;;;5033122;28;20033;-63
2024/01/20 09:17:42;;;;;;;11.98;5.63;;;;;;;;;;5039639;28;20116;-63
2024/01/20 09:20:08;;;;;;;10.43;5.53;;;;;;;;;;5051226;28;20386;-62
2024/01/20 09:22:34;;;;;;;6.97;4.13;;;;;;;;;;5049233;28;20045;-62
2024/01/20 09:25:01;;;;;;;10.32;5.30;;;;;;;;;;5051009;28;20082;-62
2024/01/20 09:27:27;;;;;;;14.23;5.00;;;;;;;;;;5051185;28;20377;-62
2024/01/20 09:29:52;;;;;;;13.15;6.03;;;;;;;;;;5052879;28;20036;-63
2024/01/20 09:32:18;;;;;;;12.75;5.90;;;;;;;;;;5053196;28;20027;-63
2024/01/20 09:34:43;;;;;;;14.82;6.60;;;;;;;;;;5054594;28;20098;-62
2024/01/20 09:37:09;;;;;;;18.77;8.00;;;;;;;;;;5053535;28;20021;-62
2024/01/20 09:39:34;;;;;;;11.73;6.20;;;;;;;;;;5054233;28;20051;-62
2024/01/20 09:42:00;;;;;;;16.00;6.50;;;;;;;;;;5055029;28;20065;-61
2024/01/20 09:44:25;;;;;;;14.50;6.43;;;;;;;;;;5053577;28;20033;-62
2024/01/20 09:46:52;;;;;;;7.63;4.32;;;;;;;;;;5036307;28;20116;-62
2024/01/20 09:49:17;;;;;;;15.82;7.10;;;;;;;;;;5034904;28;20033;-63
2024/01/20 09:51:54;;;;;;;9.40;5.57;;;;;;;;;;5034114;28;20087;-63
2024/01/20 09:54:21;;;;;;;10.00;4.72;;;;;;;;;;5034391;28;20395;-63
2024/01/20 09:56:46;;;;;;;11.23;5.18;;;;;;;;;;5043889;28;20099;-63
2024/01/20 09:59:14;;;;;;;16.35;7.75;;;;;;;;;;5053253;28;20064;-63
2024/01/20 10:01:41;;;;;;;11.50;5.00;;;;;;;;;;5053953;28;20032;-63
2024/01/20 10:04:08;;;;;;;16.30;6.65;;;;;;;;;;5054546;28;20085;-64
2024/01/20 10:06:33;;;;;;;7.72;3.95;;;;;;;;;;5053569;28;20032;-64
2024/01/20 10:08:59;;;;;;;9.98;4.88;;;;;;;;;;5054305;28;20074;-63
2024/01/20 10:11:25;;;;;;;11.45;5.25;;;;;;;;;;5053202;28;20369;-63
2024/01/20 10:13:51;;;;;;;15.82;6.65;;;;;;;;;;5037029;28;20033;-62
2024/01/20 10:16:17;;;;;;;8.18;4.15;;;;;;;;;;5054250;28;20032;-63
2024/01/20 10:18:43;;;;;;;12.88;6.35;;;;;;;;;;5053480;28;20033;-62
2024/01/20 10:21:08;;;;;;;17.27;6.40;;;;;;;;;;5053980;28;20389;-63
2024/01/20 10:23:36;;;;;;;16.02;5.95;;;;;;;;;;5053463;28;20021;-63
2024/01/20 10:26:06;;;;;;;11.57;4.60;;;;;;;;;;5053952;28;20033;-63
2024/01/20 10:28:32;;;;;;;13.57;6.03;;;;;;;;;;5049038;28;20037;-63
2024/01/20 10:30:58;;;;;;;10.15;5.32;;;;;;;;;;5034030;28;20061;-63
2024/01/20 10:33:24;;;;;;;6.05;3.42;;;;;;;;;;5034287;28;20057;-64
2024/01/20 10:35:50;;;;;;;5.95;4.00;;;;;;;;;;5033165;28;20025;-64
2024/01/20 10:38:22;;;;;;;10.20;4.90;;;;;;;;;;5033902;28;20029;-64
2024/01/20 10:40:53;;;;;;;10.68;4.80;;;;;;;;;;5032274;28;20029;-63
2024/01/20 10:43:19;;;;;;;10.90;5.45;;;;;;;;;;5033806;28;20099;-64
2024/01/20 10:45:51;;;;;;;13.55;6.43;;;;;;;;;;5033069;28;20029;-64
2024/01/20 10:48:25;;;;;;;8.90;4.75;;;;;;;;;;5033866;28;20374;-65
2024/01/20 10:50:58;;;;;;;9.90;4.70;;;;;;;;;;5033034;28;20127;-65
2024/01/20 10:53:27;;;;;;;10.27;4.65;;;;;;;;;;5033492;28;20036;-65
2024/01/20 10:55:53;;;;;;;8.40;4.07;;;;;;;;;;5032916;28;20041;-65
2024/01/20 10:58:27;;;;;;;9.88;3.97;;;;;;;;;;5033621;28;20074;-65
2024/01/20 11:00:53;;;;;;;10.43;4.43;;;;;;;;;;5032990;28;20040;-64
2024/01/20 11:03:19;;;;;;;8.18;4.35;;;;;;;;;;5033743;28;20535;-64
2024/01/20 11:05:48;;;;;;;7.20;2.85;;;;;;;;;;5032735;28;20025;-64
2024/01/20 11:08:21;;;;;;;6.13;3.10;;;;;;;;;;5033510;28;20033;-65
2024/01/20 11:10:47;;;;;;;11.07;4.55;;;;;;;;;;5052794;28;20068;-65
2024/01/20 11:13:14;;;;;;;8.98;4.70;;;;;;;;;;5053416;28;20535;-65
2024/01/20 11:15:41;;;;;;;8.07;4.13;;;;;;;;;;5052507;28;20036;-65
2024/01/20 11:18:20;;;;;;;12.60;3.85;;;;;;;;;;5040164;28;20045;-66
2024/01/20 11:21:01;;;;;;;7.90;4.18;;;;;;;;;;5049804;28;20440;-65
2024/01/20 11:23:27;;;;;;;7.63;3.97;;;;;;;;;;5053022;28;20060;-65
2024/01/20 11:25:54;;;;;;;9.43;3.53;;;;;;;;;;5052390;28;20032;-65
2024/01/20 11:28:25;;;;;;;5.55;3.17;;;;;;;;;;5052736;28;20021;-64
2024/01/20 11:30:51;;;;;;;7.72;4.22;;;;;;;;;;5052195;28;20024;-65
2024/01/20 11:33:16;;;;;;;7.00;3.85;;;;;;;;;;5036641;28;20040;-65
2024/01/20 11:35:42;;;;;;;7.50;4.03;;;;;;;;;;5031159;28;20048;-65
2024/01/20 11:38:07;;;;;;;9.43;4.90;;;;;;;;;;5033010;28;20112;-65
2024/01/20 11:40:33;;;;;;;10.55;4.53;;;;;;;;;;5033027;28;20060;-64
2024/01/20 11:43:06;;;;;;;11.00;4.90;;;;;;;;;;5032146;28;20041;-64
2024/01/20 11:45:32;;;;;;;9.05;5.28;;;;;;;;;;5032763;28;20034;-64
2024/01/20 11:47:57;;;;;;;10.98;4.13;;;;;;;;;;5046863;28;20055;-66
2024/01/20 11:50:23;;;;;;;10.57;5.18;;;;;;;;;;5052705;28;20087;-66
2024/01/20 11:52:48;;;;;;;9.88;5.72;;;;;;;;;;5051653;28;20087;-66
2024/01/20 11:55:13;;;;;;;9.60;5.45;;;;;;;;;;5034594;28;20037;-66
2024/01/20 11:57:39;;;;;;;13.07;5.82;;;;;;;;;;5032024;28;20033;-62
2024/01/20 12:00:05;;;;;;;11.00;5.07;;;;;;;;;;5032412;28;20079;-65
2024/01/20 12:02:30;;;;;;;8.15;4.65;;;;;;;;;;5032888;28;20112;-65
2024/01/20 12:04:56;;;;;;;9.20;5.15;;;;;;;;;;5031741;28;20113;-65
2024/01/20 12:07:22;;;;;;;6.28;3.90;;;;;;;;;;5032581;28;20080;-65
2024/01/20 12:09:48;;;;;;;8.25;4.20;;;;;;;;;;5042701;28;20079;-65
2024/01/20 12:12:14;;;;;;;11.98;5.15;;;;;;;;;;5032359;28;20087;-65
2024/01/20 12:14:41;;;;;;;8.32;4.38;;;;;;;;;;5046594;28;20123;-62
2024/01/20 12:17:06;;;;;;;7.25;4.00;;;;;;;;;;5052150;28;20068;-65
2024/01/20 12:19:32;;;;;;;8.98;5.03;;;;;;;;;;5052293;28;20139;-64
2024/01/20 12:21:58;;;;;;;9.75;5.35;;;;;;;;;;5050887;28;20666;-65
2024/01/20 12:24:23;;;;;;;8.50;5.28;;;;;;;;;;5052058;28;20037;-64
2024/01/20 12:26:49;;;;;;;14.07;7.70;;;;;;;;;;5051160;28;20116;-63
2024/01/20 12:29:14;;;;;;;12.07;5.78;;;;;;;;;;5039314;28;20474;-64
2024/01/20 12:31:40;;;;;;;11.00;5.75;;;;;;;;;;5031657;28;20025;-62
2024/01/20 12:34:06;;;;;;;7.65;5.07;;;;;;;;;;5031588;28;20424;-63
2024/01/20 12:36:31;;;;;;;8.60;4.55;;;;;;;;;;5032109;28;20029;-64
2024/01/20 12:38:57;;;;;;;8.05;5.00;;;;;;;;;;5030835;28;20036;-64
2024/01/20 12:41:22;;;;;;;8.95;5.40;;;;;;;;;;5031947;28;20083;-64
2024/01/20 12:43:49;;;;;;;11.38;5.47;;;;;;;;;;5031012;28;20026;-64
2024/01/20 12:46:16;;;;;;;8.35;5.60;;;;;;;;;;5031807;28;20144;-64
2024/01/20 12:48:41;;;;;;;9.50;5.03;;;;;;;;;;5031174;28;20104;-63
2024/01/20 12:51:07;;;;;;;9.38;5.40;;;;;;;;;;5031392;28;20120;-64
2024/01/20 12:53:33;;;;;;;10.20;5.32;;;;;;;;;;5036671;28;20021;-64
2024/01/20 12:55:58;;;;;;;8.55;5.28;;;;;;;;;;5048330;28;20094;-63
2024/01/20 12:58:24;;;;;;;10.30;6.15;;;;;;;;;;5031550;28;20037;-64
2024/01/20 13:00:49;;;;;;;9.32;5.20;;;;;;;;;;5030644;28;20098;-63
2024/01/20 13:03:15;;;;;;;7.38;5.20;;;;;;;;;;5031707;28;20108;-62
2024/01/20 13:05:42;;;;;;;5.95;4.13;;;;;;;;;;5034715;28;20370;-62
2024/01/20 13:08:08;;;;;;;8.27;4.93;;;;;;;;;;5035531;28;20036;-62
2024/01/20 13:10:33;;;;;;;10.07;5.47;;;;;;;;;;5035728;28;20026;-63
2024/01/20 13:12:58;;;;;;;10.20;5.68;;;;;;;;;;5033589;28;20033;-64
2024/01/20 13:15:25;;;;;;;10.77;6.00;;;;;;;;;;5035736;28;20474;-63
2024/01/20 13:17:50;;;;;;;9.35;6.53;;;;;;;;;;5034702;28;20116;-64
2024/01/20 13:20:17;;;;;;;9.13;5.68;;;;;;;;;;5035479;28;20103;-64
2024/01/20 13:22:43;;;;;;;6.97;5.55;;;;;;;;;;5035224;28;20053;-62
2024/01/20 13:25:09;;;;;;;9.23;5.95;;;;;;;;;;5035315;28;20044;-64
2024/01/20 13:27:35;;;;;;;8.23;6.03;;;;;;;;;;5052802;28;20025;-63
2024/01/20 13:30:00;;;;;;;13.77;6.35;;;;;;;;;;5054558;28;20021;-64
2024/01/20 13:32:26;;;;;;;9.95;6.32;;;;;;;;;;5055420;28;20130;-64
2024/01/20 13:34:51;;;;;;;7.07;5.22;;;;;;;;;;5054502;28;20109;-64
2024/01/20 13:37:17;;;;;;;9.13;6.07;;;;;;;;;;5050303;28;20037;-63
2024/01/20 13:39:42;;;;;;;9.68;5.70;;;;;;;;;;5054733;28;20025;-63
2024/01/20 13:42:08;;;;;;;8.50;5.97;;;;;;;;;;5053538;28;20037;-63
2024/01/20 13:44:33;;;;;;;9.77;6.40;;;;;;;;;;5055028;28;20107;-63
2024/01/20 13:46:58;;;;;;;9.00;5.90;;;;;;;;;;5042328;28;20029;-63
2024/01/20 13:49:24;;;;;;;7.07;5.90;;;;;;;;;;5035124;28;20037;-63
2024/01/20 13:51:49;;;;;;;6.88;5.50;;;;;;;;;;5034195;28;20036;-63
2024/01/20 13:54:15;;;;;;;10.80;6.25;;;;;;;;;;5035144;28;20037;-63
2024/01/20 13:56:40;;;;;;;9.52;6.70;;;;;;;;;;5053252;28;20029;-64
2024/01/20 13:59:06;;;;;;;13.85;7.60;;;;;;;;;;5043279;28;20113;-63
2024/01/20 14:01:32;;;;;;;7.43;5.82;;;;;;;;;;5046815;28;20071;-63
2024/01/20 14:03:59;;;;;;;11.65;7.60;;;;;;;;;;5052649;28;20477;-62
2024/01/20 14:06:25;;;;;;;9.73;6.88;;;;;;;;;;5041306;28;20485;-62
2024/01/20 14:08:51;;;;;;;10.45;7.03;;;;;;;;;;5033833;28;20120;-63
2024/01/20 14:11:16;;;;;;;12.07;6.85;;;;;;;;;;5034906;28;20064;-63
2024/01/20 14:13:42;;;;;;;7.82;7.03;;;;;;;;;;5033397;28;20033;-63
2024/01/20 14:16:07;;;;;;;9.00;7.57;;;;;;;;;;5034021;28;20041;-64
2024/01/20 14:18:32;;;;;;;10.20;7.70;;;;;;;;;;5034174;28;20037;-63